createdAt,value
2018-03-03T00:01:04.317Z,37.97
2018-03-03T00:06:33.257Z,37.43
2018-03-03T00:12:02.185Z,42.30
2018-03-03T00:17:30.342Z,39.33
2018-03-03T00:22:59.473Z,43.50
2018-03-03T00:28:27.638Z,43.50
2018-03-03T00:33:55.823Z,41.67
2018-03-03T00:39:23.998Z,44.97
2018-03-03T00:44:52.191Z,41.97
2018-03-03T00:50:21.158Z,42.70
2018-03-03T00:55:49.325Z,42.17
2018-03-03T01:01:17.474Z,45.40
2018-03-03T01:06:45.645Z,45.37
2018-03-03T01:12:14.590Z,47.43
2018-03-03T01:17:42.767Z,42.33
2018-03-03T01:23:10.928Z,44.40
2018-03-03T01:28:39.869Z,46.03
2018-03-03T01:34:08.026Z,44.60
2018-03-03T01:39:36.190Z,47.50
2018-03-03T01:45:08.512Z,46.27
2018-03-03T01:50:37.450Z,45.83
2018-03-03T01:56:06.366Z,47.33
2018-03-03T02:01:34.516Z,46.00
2018-03-03T02:07:02.701Z,48.60
2018-03-03T02:12:30.865Z,45.40
2018-03-03T02:17:59.022Z,45.60
2018-03-03T02:23:27.182Z,46.90
2018-03-03T02:28:55.390Z,44.40
2018-03-03T02:34:23.583Z,44.00
2018-03-03T02:39:51.880Z,45.90
2018-03-03T02:45:20.185Z,48.27
2018-03-03T02:50:48.356Z,46.10
2018-03-03T02:56:17.569Z,44.97
2018-03-03T03:01:45.759Z,44.30
2018-03-03T03:07:13.974Z,44.87
2018-03-03T03:12:42.126Z,45.87
2018-03-03T03:18:10.268Z,45.90
2018-03-03T03:23:39.255Z,45.17
2018-03-03T03:29:07.448Z,45.50
2018-03-03T03:34:35.651Z,41.90
2018-03-03T03:40:03.843Z,39.90
2018-03-03T03:45:32.019Z,40.07
2018-03-03T03:51:00.224Z,37.73
2018-03-03T03:56:28.423Z,39.90
2018-03-03T04:01:56.601Z,39.33
2018-03-03T04:07:25.124Z,41.97
2018-03-03T04:12:53.302Z,39.97
2018-03-03T04:18:21.599Z,41.07
2018-03-03T04:23:49.792Z,42.60
2018-03-03T04:29:17.968Z,44.37
2018-03-03T04:34:46.133Z,50.07
2018-03-03T04:40:15.091Z,44.50
2018-03-03T04:45:43.283Z,42.50
2018-03-03T04:51:11.470Z,41.50
2018-03-03T04:56:39.672Z,42.67
2018-03-03T05:08:35.224Z,42.23
2018-03-03T05:14:09.135Z,39.30
2018-03-03T05:19:43.017Z,41.17
2018-03-03T05:25:16.877Z,38.40
2018-03-03T05:30:50.646Z,36.80
2018-03-03T05:42:45.413Z,40.70
2018-03-03T05:54:43.195Z,38.40
2018-03-03T06:06:33.872Z,39.73
2018-03-03T06:12:02.037Z,41.13
2018-03-03T06:17:30.189Z,40.67
2018-03-03T06:22:58.368Z,38.37
2018-03-03T06:28:27.368Z,40.73
2018-03-03T06:33:56.292Z,35.90
2018-03-03T06:39:24.522Z,36.50
2018-03-03T06:44:52.709Z,35.63
2018-03-03T06:50:21.664Z,41.13
2018-03-03T06:55:49.906Z,37.40
2018-03-03T07:01:18.062Z,37.70
2018-03-03T07:06:46.990Z,38.27
2018-03-03T07:12:15.922Z,38.87
2018-03-03T07:17:44.096Z,42.07
2018-03-03T07:23:12.259Z,41.27
2018-03-03T07:28:40.652Z,42.63
2018-03-03T07:34:08.849Z,44.13
2018-03-03T07:39:37.013Z,43.40
2018-03-03T07:45:05.177Z,40.90
2018-03-03T07:50:33.346Z,38.97
2018-03-03T07:56:01.499Z,41.90
2018-03-03T08:01:30.408Z,41.97
2018-03-03T08:06:58.564Z,41.07
2018-03-03T08:12:27.494Z,41.73
2018-03-03T08:17:56.627Z,45.70
2018-03-03T08:23:25.772Z,40.70
2018-03-03T08:28:54.941Z,46.70
2018-03-03T08:34:24.446Z,43.67
2018-03-03T08:39:52.709Z,42.77
2018-03-03T08:45:20.974Z,44.00
2018-03-03T08:50:49.173Z,42.60
2018-03-03T08:56:17.407Z,42.57
2018-03-03T09:01:45.576Z,44.63
2018-03-03T09:07:14.496Z,48.30
2018-03-03T09:12:42.644Z,46.80
2018-03-03T09:18:11.564Z,52.47
2018-03-03T09:23:39.708Z,47.80
2018-03-03T09:29:07.992Z,52.77
2018-03-03T09:34:36.129Z,50.50
2018-03-03T09:40:05.042Z,51.13
2018-03-03T09:45:33.966Z,51.93
2018-03-03T09:51:02.110Z,54.43
2018-03-03T09:56:30.272Z,52.53
2018-03-03T10:02:05.923Z,48.83
2018-03-03T10:07:26.729Z,49.93
2018-03-03T10:12:55.070Z,50.80
2018-03-03T10:18:23.260Z,50.87
2018-03-03T10:23:51.618Z,50.80
2018-03-03T10:29:19.796Z,52.00
2018-03-03T10:34:47.942Z,53.97
2018-03-03T10:40:16.126Z,54.37
2018-03-03T10:45:45.034Z,51.77
2018-03-03T10:51:13.277Z,55.63
2018-03-03T10:56:41.544Z,53.67
2018-03-03T11:02:09.692Z,54.17
2018-03-03T11:07:37.834Z,53.97
2018-03-03T11:13:06.747Z,54.47
2018-03-03T11:18:34.897Z,51.57
2018-03-03T11:24:03.826Z,52.57
2018-03-03T11:29:31.971Z,51.90
2018-03-03T11:35:00.534Z,50.50
2018-03-03T11:40:33.130Z,50.40
2018-03-03T11:45:58.223Z,48.87
2018-03-03T11:51:26.388Z,49.50
2018-03-03T11:56:55.265Z,50.47
2018-03-03T12:02:23.686Z,50.60
2018-03-03T12:07:51.836Z,50.63
2018-03-03T12:13:19.969Z,52.63
2018-03-03T12:18:48.899Z,52.27
2018-03-03T12:24:17.934Z,49.57
2018-03-03T12:29:46.883Z,52.87
2018-03-03T12:35:15.040Z,54.03
2018-03-03T12:40:43.198Z,50.27
2018-03-03T12:46:11.345Z,48.13
2018-03-03T12:51:39.491Z,52.80
2018-03-03T12:57:07.725Z,48.97
2018-03-03T13:02:35.865Z,48.57
2018-03-03T13:08:04.027Z,47.10
2018-03-03T13:13:32.937Z,43.90
2018-03-03T13:19:01.097Z,43.43
2018-03-03T13:24:30.006Z,43.30
2018-03-03T13:29:58.185Z,43.13
2018-03-03T13:35:27.134Z,41.67
2018-03-03T13:40:55.615Z,42.07
2018-03-03T13:46:24.713Z,40.10
2018-03-03T13:51:53.093Z,39.43
2018-03-03T13:57:22.081Z,37.30
2018-03-03T14:02:50.432Z,41.13
2018-03-03T14:08:18.675Z,35.47
2018-03-03T14:13:47.608Z,38.13
2018-03-03T14:19:16.538Z,38.40
2018-03-03T14:24:45.435Z,37.33
2018-03-03T14:30:13.761Z,38.40
2018-03-03T14:35:41.948Z,37.70
2018-03-03T14:41:10.086Z,37.63
2018-03-03T14:46:39.000Z,36.67
2018-03-03T14:52:07.154Z,37.77
2018-03-03T14:57:35.327Z,37.60
2018-03-03T15:03:04.267Z,34.83
2018-03-03T15:08:32.382Z,38.57
2018-03-03T15:14:01.365Z,36.80
2018-03-03T15:19:29.503Z,37.13
2018-03-03T15:24:57.773Z,34.27
2018-03-03T15:30:26.858Z,34.30
2018-03-03T15:35:55.029Z,32.67
2018-03-03T15:41:23.969Z,32.83
2018-03-03T15:46:52.113Z,31.80
2018-03-03T15:52:21.038Z,32.50
2018-03-03T15:57:49.192Z,34.80
2018-03-03T16:03:17.350Z,34.53
2018-03-03T16:08:46.254Z,31.50
2018-03-03T16:14:14.392Z,35.00
2018-03-03T16:19:48.646Z,33.30
2018-03-03T16:25:16.924Z,34.40
2018-03-03T16:30:45.073Z,35.27
2018-03-03T16:36:13.236Z,34.97
2018-03-03T16:41:42.135Z,34.03
2018-03-03T16:47:10.300Z,34.60
2018-03-03T16:52:39.235Z,37.20
2018-03-03T16:58:08.149Z,32.53
2018-03-03T17:03:36.302Z,34.80
2018-03-03T17:09:04.456Z,34.17
2018-03-03T17:14:32.598Z,35.07
2018-03-03T17:20:00.752Z,35.07
2018-03-03T17:25:29.647Z,35.93
2018-03-03T17:30:57.807Z,36.73
2018-03-03T17:36:26.793Z,38.40
2018-03-03T17:41:54.970Z,36.10
2018-03-03T17:47:23.917Z,37.97
2018-03-03T17:52:52.073Z,36.90
2018-03-03T17:58:20.254Z,38.30
2018-03-03T18:03:48.594Z,33.80
2018-03-03T18:09:16.718Z,38.33
2018-03-03T18:14:44.862Z,46.80
2018-03-03T18:20:13.043Z,37.30
2018-03-03T18:25:41.240Z,37.37
2018-03-03T18:31:10.153Z,36.97
2018-03-03T18:36:38.320Z,38.83
2018-03-03T18:42:06.448Z,37.83
2018-03-03T18:47:34.672Z,36.83
2018-03-03T18:53:03.628Z,39.43
2018-03-03T18:58:31.786Z,36.77
2018-03-03T19:04:01.863Z,39.13
2018-03-03T19:09:30.807Z,36.73
2018-03-03T19:14:59.785Z,34.20
2018-03-03T19:20:27.972Z,39.27
2018-03-03T19:25:56.916Z,34.40
2018-03-03T19:31:25.082Z,37.67
2018-03-03T19:36:53.324Z,40.67
2018-03-03T19:42:21.708Z,36.87
2018-03-03T19:47:51.082Z,37.80
2018-03-03T19:53:19.321Z,36.60
2018-03-03T19:58:48.316Z,38.00
2018-03-03T20:04:16.461Z,39.77
2018-03-03T20:09:44.657Z,40.70
2018-03-03T20:15:12.846Z,42.80
2018-03-03T20:20:40.989Z,37.37
2018-03-03T20:26:09.138Z,41.03
2018-03-03T20:31:37.339Z,42.17
2018-03-03T20:37:05.507Z,38.20
2018-03-03T20:42:34.446Z,39.97
2018-03-03T20:48:03.373Z,38.93
2018-03-03T20:53:31.525Z,35.60
2018-03-03T20:58:59.677Z,36.63
2018-03-03T21:04:27.852Z,33.70
2018-03-03T21:09:56.015Z,35.20
2018-03-03T21:15:24.231Z,39.03
2018-03-03T21:20:52.777Z,35.07
2018-03-03T21:26:21.060Z,34.17
2018-03-03T21:31:49.214Z,34.80
2018-03-03T21:37:17.376Z,36.53
2018-03-03T21:42:46.283Z,35.57
2018-03-03T21:48:14.618Z,36.87
2018-03-03T21:53:42.987Z,33.47
2018-03-03T21:59:11.200Z,34.03
2018-03-03T22:04:39.350Z,34.03
2018-03-03T22:10:08.459Z,34.63
2018-03-03T22:15:37.595Z,34.90
2018-03-03T22:21:06.530Z,35.57
2018-03-03T22:26:35.437Z,36.90
2018-03-03T22:32:03.591Z,42.10
2018-03-03T22:37:32.533Z,39.87
2018-03-03T22:43:01.439Z,37.47
2018-03-03T22:48:29.579Z,35.77
2018-03-03T22:53:58.503Z,38.60
2018-03-03T22:59:27.411Z,37.67
2018-03-03T23:04:55.612Z,37.00
2018-03-03T23:10:23.751Z,35.17
2018-03-03T23:15:51.916Z,34.80
2018-03-03T23:21:21.029Z,37.40
2018-03-03T23:26:49.220Z,37.60
2018-03-03T23:32:17.363Z,35.80
2018-03-03T23:37:45.510Z,36.67
2018-03-03T23:43:14.436Z,35.87
2018-03-03T23:48:42.597Z,37.07
2018-03-03T23:54:10.730Z,36.13
2018-03-03T23:59:39.657Z,34.90
